createdAt,value
2022-11-04T00:01:55.728Z,26.92
2022-11-04T00:04:25.221Z,22.13
2022-11-04T00:06:57.587Z,23.33
2022-11-04T00:09:30.170Z,22.70
2022-11-04T00:12:16.232Z,21.67
2022-11-04T00:14:44.030Z,19.55
2022-11-04T00:17:24.298Z,18.70
2022-11-04T00:20:12.231Z,16.33
2022-11-04T00:23:00.623Z,15.63
2022-11-04T00:25:46.441Z,15.48
2022-11-04T00:28:37.533Z,15.75
2022-11-04T00:31:26.509Z,15.23
2022-11-04T00:34:02.455Z,16.80
2022-11-04T00:36:35.452Z,16.55
2022-11-04T00:39:04.752Z,16.10
2022-11-04T00:41:43.441Z,13.80
2022-11-04T00:46:56.282Z,13.77
2022-11-04T00:49:25.675Z,15.75
2022-11-04T00:51:52.879Z,14.07
2022-11-04T00:54:20.134Z,13.60
2022-11-04T00:56:48.771Z,10.60
2022-11-04T00:59:16.038Z,7.68
2022-11-04T01:01:43.929Z,8.90
2022-11-04T01:04:14.539Z,11.60
2022-11-04T01:06:41.884Z,8.40
2022-11-04T01:09:15.900Z,7.65
2022-11-04T01:11:43.211Z,10.23
2022-11-04T01:14:10.755Z,7.70
2022-11-04T01:16:42.164Z,9.77
2022-11-04T01:19:10.881Z,8.75
2022-11-04T01:21:38.491Z,10.32
2022-11-04T01:24:06.049Z,9.00
2022-11-04T01:27:02.465Z,7.32
2022-11-04T01:29:28.670Z,8.23
2022-11-04T01:31:58.153Z,8.57
2022-11-04T01:34:42.390Z,6.78
2022-11-04T01:37:14.340Z,8.23
2022-11-04T01:39:44.605Z,8.40
2022-11-04T01:42:15.104Z,10.63
2022-11-04T01:44:49.055Z,8.07
2022-11-04T01:48:04.849Z,8.25
2022-11-04T01:50:34.359Z,7.72
2022-11-04T01:53:10.155Z,11.00
2022-11-04T01:55:45.544Z,9.00
2022-11-04T01:58:18.378Z,7.65
2022-11-04T02:00:46.298Z,6.07
2022-11-04T02:03:20.278Z,6.50
2022-11-04T02:05:51.243Z,6.28
2022-11-04T02:08:24.283Z,6.20
2022-11-04T02:11:09.257Z,7.43
2022-11-04T02:13:37.233Z,5.68
2022-11-04T02:16:12.727Z,7.65
2022-11-04T02:18:51.854Z,8.95
2022-11-04T02:21:46.795Z,7.55
2022-11-04T02:24:35.179Z,7.53
2022-11-04T02:27:20.057Z,6.70
2022-11-04T02:30:08.039Z,7.35
2022-11-04T02:33:01.065Z,8.40
2022-11-04T02:35:32.707Z,8.65
2022-11-04T02:38:21.456Z,10.25
2022-11-04T02:41:04.885Z,11.18
2022-11-04T02:44:00.193Z,13.65
2022-11-04T02:46:40.620Z,15.38
2022-11-04T02:49:31.095Z,20.20
2022-11-04T02:52:12.953Z,18.13
2022-11-04T02:54:47.685Z,19.45
2022-11-04T02:57:21.997Z,21.95
2022-11-04T02:59:56.210Z,22.65
2022-11-04T03:02:31.512Z,23.20
2022-11-04T03:04:59.291Z,21.75
2022-11-04T03:07:31.860Z,24.08
2022-11-04T03:10:05.554Z,21.77
2022-11-04T03:13:05.402Z,19.73
2022-11-04T03:15:35.125Z,17.95
2022-11-04T03:18:12.491Z,17.55
2022-11-04T03:20:42.057Z,17.50
2022-11-04T03:23:11.111Z,18.60
2022-11-04T03:25:43.364Z,18.05
2022-11-04T03:28:32.340Z,17.15
2022-11-04T03:31:02.492Z,17.88
2022-11-04T03:33:35.811Z,15.73
2022-11-04T03:36:04.492Z,17.98
2022-11-04T03:38:39.286Z,14.93
2022-11-04T03:41:11.286Z,18.30
2022-11-04T03:43:39.025Z,16.13
2022-11-04T03:46:06.592Z,16.85
2022-11-04T03:48:34.118Z,14.00
2022-11-04T03:51:01.549Z,16.63
2022-11-04T03:53:29.418Z,14.95
2022-11-04T03:56:09.150Z,15.77
2022-11-04T03:58:58.515Z,13.32
2022-11-04T04:02:04.543Z,15.23
2022-11-04T04:04:40.781Z,13.95
2022-11-04T04:07:15.355Z,12.55
2022-11-04T04:09:46.734Z,16.08
2022-11-04T04:12:19.502Z,14.55
2022-11-04T04:14:52.524Z,15.15
2022-11-04T04:17:31.456Z,13.63
2022-11-04T04:20:02.347Z,13.00
2022-11-04T04:22:57.391Z,15.55
2022-11-04T04:25:54.693Z,15.00
2022-11-04T04:28:22.384Z,16.45
2022-11-04T04:30:50.123Z,14.00
2022-11-04T04:33:19.468Z,14.95
2022-11-04T04:35:54.362Z,15.75
2022-11-04T04:38:51.313Z,14.63
2022-11-04T04:41:46.213Z,21.13
2022-11-04T04:44:42.761Z,17.25
2022-11-04T04:47:11.680Z,15.68
2022-11-04T04:49:52.708Z,15.73
2022-11-04T04:52:21.032Z,17.48
2022-11-04T04:54:48.268Z,18.50
2022-11-04T04:57:18.919Z,20.42
2022-11-04T04:59:46.092Z,18.08
2022-11-04T05:02:15.288Z,20.02
2022-11-04T05:04:43.380Z,25.55
2022-11-04T05:07:11.673Z,20.02
2022-11-04T05:09:39.862Z,19.25
2022-11-04T05:12:07.469Z,17.40
2022-11-04T05:14:38.180Z,21.35
2022-11-04T05:17:05.545Z,25.95
2022-11-04T05:19:33.539Z,20.75
2022-11-04T05:22:04.243Z,19.77
2022-11-04T05:24:32.821Z,18.42
2022-11-04T05:27:00.086Z,17.63
2022-11-04T05:29:36.435Z,15.07
2022-11-04T05:32:03.765Z,16.05
2022-11-04T05:34:39.254Z,16.65
2022-11-04T05:37:06.978Z,16.77
2022-11-04T05:39:36.789Z,22.05
2022-11-04T05:42:06.608Z,20.10
2022-11-04T05:44:46.766Z,22.88
2022-11-04T05:47:16.642Z,22.50
2022-11-04T05:49:44.501Z,21.55
2022-11-04T05:52:14.927Z,21.42
2022-11-04T05:54:45.616Z,22.42
2022-11-04T05:57:13.222Z,22.98
2022-11-04T05:59:45.653Z,24.33
2022-11-04T06:02:13.200Z,27.65
2022-11-04T06:04:40.883Z,24.20
2022-11-04T06:07:09.293Z,24.35
2022-11-04T06:09:44.175Z,24.88
2022-11-04T06:12:18.243Z,21.55
2022-11-04T06:14:56.072Z,22.67
2022-11-04T06:17:28.181Z,21.55
2022-11-04T06:19:55.390Z,16.08
2022-11-04T06:22:29.358Z,18.45
2022-11-04T06:25:11.106Z,17.67
2022-11-04T06:30:26.446Z,14.90
2022-11-04T06:32:58.045Z,15.93
2022-11-04T06:35:25.307Z,15.95
2022-11-04T06:38:10.685Z,15.93
2022-11-04T06:40:40.373Z,15.27
2022-11-04T06:43:13.223Z,15.68
2022-11-04T06:45:40.498Z,16.83
2022-11-04T06:48:11.319Z,17.65
2022-11-04T06:50:41.546Z,16.90
2022-11-04T06:53:09.305Z,18.35
2022-11-04T06:55:37.203Z,17.63
2022-11-04T06:58:04.720Z,16.88
2022-11-04T07:00:32.299Z,15.48
2022-11-04T07:02:59.696Z,18.92
2022-11-04T07:05:27.275Z,17.42
2022-11-04T07:07:54.693Z,17.73
2022-11-04T07:10:24.934Z,20.77
2022-11-04T07:12:56.899Z,15.82
2022-11-04T07:15:27.822Z,15.70
2022-11-04T07:17:59.299Z,15.98
2022-11-04T07:20:26.704Z,17.35
2022-11-04T07:22:59.817Z,16.55
2022-11-04T07:25:33.107Z,15.27
2022-11-04T07:28:03.325Z,19.45
2022-11-04T07:30:30.809Z,15.63
2022-11-04T07:32:59.144Z,19.27
2022-11-04T07:35:26.828Z,17.17
2022-11-04T07:37:55.435Z,19.10
2022-11-04T07:40:22.951Z,18.58
2022-11-04T07:43:07.053Z,16.20
2022-11-04T07:45:34.576Z,14.65
2022-11-04T07:48:02.140Z,16.55
2022-11-04T07:50:37.328Z,17.33
2022-11-04T07:53:14.477Z,15.77
2022-11-04T07:55:45.515Z,15.65
2022-11-04T07:58:16.229Z,19.63
2022-11-04T08:00:45.044Z,19.73
2022-11-04T08:03:15.241Z,16.05
2022-11-04T08:05:43.028Z,15.80
2022-11-04T08:08:15.699Z,17.35
2022-11-04T08:10:53.659Z,19.17
2022-11-04T08:13:22.675Z,21.83
2022-11-04T08:15:51.797Z,28.17
2022-11-04T08:18:34.901Z,30.27
2022-11-04T08:21:08.015Z,22.63
2022-11-04T08:23:36.028Z,23.75
2022-11-04T08:26:11.337Z,22.67
2022-11-04T08:28:42.837Z,24.02
2022-11-04T08:31:16.966Z,21.30
2022-11-04T08:33:48.447Z,22.20
2022-11-04T08:36:20.142Z,22.55
2022-11-04T08:38:51.523Z,21.00
2022-11-04T08:41:21.946Z,20.58
2022-11-04T08:43:54.537Z,19.45
2022-11-04T08:46:22.675Z,20.92
2022-11-04T08:48:49.951Z,21.70
2022-11-04T08:51:20.355Z,21.77
2022-11-04T08:53:48.150Z,23.77
2022-11-04T08:56:16.400Z,25.08
2022-11-04T08:58:45.594Z,21.08
2022-11-04T09:01:15.622Z,23.00
2022-11-04T09:03:43.577Z,21.25
2022-11-04T09:06:14.757Z,22.40
2022-11-04T09:08:43.486Z,23.50
2022-11-04T09:11:13.936Z,21.90
2022-11-04T09:13:42.307Z,27.30
2022-11-04T09:16:14.430Z,22.70
2022-11-04T09:19:05.075Z,23.00
2022-11-04T09:21:35.223Z,14.55
2022-11-04T09:24:02.697Z,15.02
2022-11-04T09:26:31.529Z,13.80
2022-11-04T09:29:00.141Z,14.30
2022-11-04T09:31:29.807Z,16.05
2022-11-04T09:33:57.743Z,17.58
2022-11-04T09:36:25.782Z,14.38
2022-11-04T09:38:52.993Z,12.63
2022-11-04T09:41:29.483Z,12.75
2022-11-04T09:44:14.765Z,16.30
2022-11-04T09:46:43.142Z,14.38
2022-11-04T09:49:13.318Z,13.32
2022-11-04T09:51:54.428Z,12.65
2022-11-04T09:54:28.454Z,13.75
2022-11-04T09:56:59.848Z,18.13
2022-11-04T09:59:30.239Z,14.70
2022-11-04T10:02:30.113Z,14.80
2022-11-04T10:05:06.354Z,15.25
2022-11-04T10:07:45.789Z,15.93
2022-11-04T10:10:46.086Z,13.48
2022-11-04T10:14:01.606Z,14.13
2022-11-04T10:16:46.826Z,11.98
2022-11-04T10:19:48.465Z,14.18
2022-11-04T10:22:31.499Z,13.68
2022-11-04T10:25:02.636Z,14.68
2022-11-04T10:27:34.894Z,14.07
2022-11-04T10:30:06.514Z,13.63
2022-11-04T10:32:35.011Z,13.55
2022-11-04T10:35:06.400Z,14.95
2022-11-04T10:37:36.912Z,12.00
2022-11-04T10:40:25.217Z,12.10
2022-11-04T10:42:53.749Z,11.93
2022-11-04T10:45:23.766Z,12.77
2022-11-04T10:47:58.324Z,12.10
2022-11-04T10:50:37.579Z,13.77
2022-11-04T10:53:20.728Z,13.30
2022-11-04T10:55:54.198Z,10.65
2022-11-04T10:58:27.743Z,12.18
2022-11-04T11:00:55.814Z,11.93
2022-11-04T11:03:25.130Z,12.25
2022-11-04T11:05:53.560Z,12.70
2022-11-04T11:08:31.936Z,15.35
2022-11-04T11:11:00.292Z,11.73
2022-11-04T11:13:36.123Z,11.77
2022-11-04T11:16:20.836Z,10.88
2022-11-04T11:19:18.392Z,10.30
2022-11-04T11:21:51.546Z,14.55
2022-11-04T11:24:25.997Z,14.35
2022-11-04T11:26:55.640Z,13.82
2022-11-04T11:29:25.714Z,15.90
2022-11-04T11:31:54.042Z,15.57
2022-11-04T11:34:26.671Z,11.55
2022-11-04T11:36:57.825Z,11.80
2022-11-04T11:39:32.783Z,11.63
2022-11-04T11:42:06.303Z,12.43
2022-11-04T11:44:49.242Z,15.05
2022-11-04T11:47:38.173Z,11.32
2022-11-04T11:50:34.474Z,12.07
2022-11-04T11:53:19.717Z,14.10
2022-11-04T11:55:51.458Z,11.75
2022-11-04T12:01:35.940Z,12.30
2022-11-04T12:10:23.987Z,12.18
2022-11-04T12:13:23.351Z,10.07
2022-11-04T12:16:02.821Z,9.50
2022-11-04T12:18:46.801Z,10.68
2022-11-04T12:21:21.530Z,13.07
2022-11-04T12:23:55.066Z,12.70
2022-11-04T12:26:57.730Z,18.33
2022-11-04T12:29:46.362Z,13.38
2022-11-04T12:32:30.259Z,15.90
2022-11-04T12:35:08.516Z,15.30
2022-11-04T12:37:58.131Z,13.48
2022-11-04T12:40:33.583Z,14.23
2022-11-04T12:43:22.335Z,16.27
2022-11-04T12:46:26.044Z,13.07
2022-11-04T12:49:07.384Z,13.65
2022-11-04T12:52:30.139Z,13.45
2022-11-04T12:55:25.377Z,12.30
2022-11-04T12:58:12.908Z,12.18
2022-11-04T13:00:46.622Z,12.73
2022-11-04T13:03:30.291Z,13.45
2022-11-04T13:06:06.095Z,11.20
2022-11-04T13:08:46.939Z,13.75
2022-11-04T13:11:25.983Z,15.60
2022-11-04T13:14:11.995Z,13.02
2022-11-04T13:16:42.596Z,13.55
2022-11-04T13:19:52.234Z,13.52
2022-11-04T13:22:48.876Z,11.05
2022-11-04T13:25:27.120Z,11.63
2022-11-04T13:27:55.986Z,15.20
2022-11-04T13:30:41.257Z,13.90
2022-11-04T13:33:43.989Z,16.15
2022-11-04T13:36:35.710Z,10.80
2022-11-04T13:39:22.428Z,15.77
2022-11-04T13:42:26.856Z,11.65
2022-11-04T13:44:58.699Z,14.18
2022-11-04T13:47:37.999Z,16.58
2022-11-04T13:50:05.979Z,17.38
2022-11-04T13:52:34.393Z,19.10
2022-11-04T13:55:04.694Z,19.90
2022-11-04T13:57:55.587Z,20.90
2022-11-04T14:00:24.927Z,21.75
2022-11-04T14:02:53.160Z,28.50
2022-11-04T14:05:29.829Z,24.60
2022-11-04T14:08:03.078Z,28.70
2022-11-04T14:10:49.219Z,30.45
2022-11-04T14:13:28.490Z,30.20
2022-11-04T14:16:24.643Z,35.72
2022-11-04T17:12:02.462Z,26.38
2022-11-04T17:14:33.015Z,26.83
2022-11-04T17:17:00.452Z,25.25
2022-11-04T17:19:33.422Z,31.25
2022-11-04T17:22:06.652Z,26.20
2022-11-04T17:24:38.064Z,32.88
2022-11-04T17:27:17.920Z,51.70
2022-11-04T17:29:45.761Z,30.55
2022-11-04T17:32:13.901Z,44.60
2022-11-04T17:34:41.495Z,30.77
2022-11-04T17:37:15.327Z,36.50
2022-11-04T17:39:44.114Z,30.70
2022-11-04T17:42:30.693Z,27.30
2022-11-04T17:45:01.390Z,30.90
2022-11-04T17:47:43.147Z,26.77
2022-11-04T17:50:11.816Z,28.02
2022-11-04T17:52:52.482Z,26.85
2022-11-04T17:55:26.186Z,30.63
2022-11-04T17:57:55.624Z,47.08
2022-11-04T18:00:48.786Z,40.42
2022-11-04T18:03:17.789Z,25.83
2022-11-04T18:05:55.332Z,26.83
2022-11-04T18:08:32.721Z,24.50
2022-11-04T18:11:02.443Z,26.30
2022-11-04T18:13:32.774Z,23.55
2022-11-04T18:16:13.731Z,21.58
2022-11-04T18:18:51.793Z,22.50
2022-11-04T18:21:21.185Z,25.13
2022-11-04T18:23:54.910Z,29.00
2022-11-04T18:26:22.624Z,26.50
2022-11-04T18:28:58.262Z,24.98
2022-11-04T18:31:34.520Z,25.40
2022-11-04T18:34:07.603Z,35.70
2022-11-04T18:36:40.700Z,37.00
2022-11-04T18:39:13.301Z,25.30
2022-11-04T18:41:41.863Z,28.80
2022-11-04T18:44:21.367Z,21.65
2022-11-04T18:46:49.821Z,23.10
2022-11-04T18:49:18.242Z,25.52
2022-11-04T18:51:45.572Z,29.83
2022-11-04T18:54:16.647Z,33.83
2022-11-04T18:56:44.116Z,24.38
2022-11-04T18:59:15.267Z,20.52
2022-11-04T19:01:43.983Z,20.95
2022-11-04T19:04:14.045Z,18.75
2022-11-04T19:06:44.227Z,18.27
2022-11-04T19:09:45.352Z,20.45
2022-11-04T19:12:27.236Z,17.52
2022-11-04T19:14:55.457Z,17.75
2022-11-04T19:17:22.881Z,18.73
2022-11-04T19:19:54.188Z,17.50
2022-11-04T19:22:25.997Z,19.60
2022-11-04T19:24:59.880Z,22.77
2022-11-04T19:27:38.446Z,21.38
2022-11-04T19:30:11.068Z,18.50
2022-11-04T19:35:26.559Z,22.38
2022-11-04T19:38:09.525Z,33.85
2022-11-04T19:40:51.710Z,23.48
2022-11-04T19:43:23.299Z,20.45
2022-11-04T19:45:50.872Z,21.48
2022-11-04T19:48:21.689Z,18.80
2022-11-04T19:50:50.686Z,22.17
2022-11-04T19:53:20.091Z,18.73
2022-11-04T19:59:16.672Z,22.00
2022-11-04T20:01:45.858Z,19.80
2022-11-04T20:08:13.372Z,23.17
2022-11-04T20:10:47.049Z,23.50
2022-11-04T20:13:41.334Z,18.52
2022-11-04T20:16:29.453Z,31.52
2022-11-04T20:19:06.970Z,31.77
2022-11-04T20:21:38.177Z,21.45
2022-11-04T20:24:07.675Z,19.73
2022-11-04T20:26:38.114Z,24.13
2022-11-04T20:29:11.263Z,21.83
2022-11-04T20:31:41.340Z,29.42
2022-11-04T20:34:11.648Z,35.45
2022-11-04T20:37:19.738Z,29.60
2022-11-04T20:39:52.288Z,29.77
2022-11-04T20:42:22.004Z,25.05
2022-11-04T20:45:02.029Z,23.60
2022-11-04T20:47:30.031Z,23.48
2022-11-04T20:49:58.706Z,27.63
2022-11-04T20:52:26.402Z,27.02
2022-11-04T20:54:56.477Z,29.02
2022-11-04T20:57:23.959Z,32.28
2022-11-04T20:59:53.562Z,42.50
2022-11-04T21:02:23.068Z,35.40
2022-11-04T21:04:55.233Z,43.30
2022-11-04T21:07:46.336Z,41.30
2022-11-04T21:10:20.704Z,37.97
2022-11-04T21:12:55.228Z,47.50
2022-11-04T21:15:45.784Z,48.08
2022-11-04T21:18:13.848Z,44.90
2022-11-04T21:20:45.406Z,39.95
2022-11-04T21:23:14.880Z,42.53
2022-11-04T21:25:48.601Z,45.30
2022-11-04T21:28:17.811Z,40.35
2022-11-04T21:30:48.824Z,47.58
2022-11-04T21:33:16.512Z,44.53
2022-11-04T21:35:43.856Z,41.60
2022-11-04T21:38:16.749Z,47.88
2022-11-04T21:40:45.016Z,42.78
2022-11-04T21:43:13.594Z,39.05
2022-11-04T21:45:41.603Z,37.50
2022-11-04T21:48:14.153Z,37.33
2022-11-04T21:50:44.521Z,34.92
2022-11-04T21:53:13.225Z,39.38
2022-11-04T21:55:44.941Z,38.75
2022-11-04T21:58:12.591Z,42.22
2022-11-04T22:00:40.373Z,37.53
2022-11-04T22:03:13.905Z,40.70
2022-11-04T22:05:44.832Z,38.97
2022-11-04T22:08:19.968Z,41.05
2022-11-04T22:10:48.288Z,42.40
2022-11-04T22:13:17.203Z,40.95
2022-11-04T22:16:04.516Z,40.95
2022-11-04T22:18:33.157Z,37.47
2022-11-04T22:21:05.933Z,75.25
2022-11-04T22:23:35.337Z,52.80
2022-11-04T22:26:15.042Z,46.35
2022-11-04T22:28:47.550Z,50.38
2022-11-04T22:31:21.744Z,35.15
2022-11-04T22:33:51.532Z,38.45
2022-11-04T22:36:25.821Z,42.17
2022-11-04T22:38:54.293Z,43.05
2022-11-04T22:41:23.747Z,40.85
2022-11-04T22:43:52.911Z,39.72
2022-11-04T22:46:26.346Z,46.25
2022-11-04T22:48:53.736Z,46.15
2022-11-04T22:51:21.055Z,54.60
2022-11-04T22:53:56.613Z,45.45
2022-11-04T22:56:26.370Z,35.75
2022-11-04T22:58:54.467Z,36.00
2022-11-04T23:01:22.320Z,48.25
2022-11-04T23:03:54.616Z,50.88
2022-11-04T23:06:22.269Z,40.38
2022-11-04T23:08:49.636Z,47.50
2022-11-04T23:11:41.074Z,42.00
2022-11-04T23:14:30.227Z,40.97
2022-11-04T23:17:19.055Z,39.83
2022-11-04T23:19:47.224Z,44.08
2022-11-04T23:22:32.868Z,48.10
2022-11-04T23:25:09.308Z,39.50
2022-11-04T23:28:05.171Z,43.47
2022-11-04T23:30:35.919Z,46.55
2022-11-04T23:33:14.310Z,45.35
2022-11-04T23:36:03.453Z,46.28
2022-11-04T23:38:31.565Z,47.97
2022-11-04T23:41:26.670Z,44.25
2022-11-04T23:43:53.932Z,52.25
2022-11-04T23:46:43.365Z,43.25
2022-11-04T23:49:14.701Z,44.90
2022-11-04T23:52:00.820Z,38.95
2022-11-04T23:54:46.793Z,42.78
2022-11-04T23:57:34.606Z,41.83
